East Grip

KL  EN  DA
ASIAQ
Weather Now GREENLAND SURVEY
Updated [WGT/WGST] Temperature [°C] Wind [m/s] Air pressure [hPa] Relative humidity [%] Precipitation [mm]
Present Wind chill Speed Max
07.08 20:00-10,1-16,03,3 ⇑n/a722n/an/a
07.08 19:00-12,3-17,32,3 ⇑n/a722n/an/a
07.08 18:00-11,2-16,22,4 ⇗n/a722n/an/a
07.08 17:00-10,5-13,51,4 ⇗n/a722n/an/a
07.08 16:00-8,30,00,5 ⇗n/a722n/an/a
07.08 15:00-7,2-12,83,7 ⇗n/a722n/an/a
07.08 14:00-7,3-14,04,9 ⇗n/a722n/an/a
07.08 13:00-8,5-15,24,5 ⇗n/a722n/an/a
07.08 12:00-9,5-16,54,7 ⇗n/a722n/an/a
07.08 11:00-10,9-18,24,6 ⇒n/a722n/an/a
07.08 10:00-11,1-18,75,0 ⇒n/a722n/an/a
07.08 09:00-11,8-19,64,9 ⇗n/a723n/an/a
07.08 08:00-13,3-21,14,5 ⇒n/a723n/an/a
07.08 07:00-14,4-22,44,4 ⇒n/a723n/an/a
07.08 06:00-15,2-24,35,3 ⇒n/a723n/an/a
07.08 05:00-15,0-23,54,9 ⇒n/a722n/an/a
07.08 04:00-14,4-22,95,0 ⇒n/a722n/an/a
07.08 03:00-13,1-21,65,5 ⇒n/a722n/an/a
07.08 02:00-11,8-18,53,7 ⇒n/a722n/an/a
07.08 01:00-12,3-19,13,7 ⇒n/a722n/an/a
07.08 00:00-12,1-18,83,7 ⇒n/a722n/an/a
06.08 23:00-13,1-19,33,1 ⇒n/a722n/an/a
06.08 22:00-15,6-22,93,6 ⇒n/a722n/an/a
06.08 21:00-17,3-23,72,6 ⇒n/a722n/an/a
06.08 20:00-13,1-19,22,9 ⇒n/a722n/an/a
Position: (75.6247,-35.9748)

[Back]